Time;durP1;ratioP1;P1;durP2;ratioP2;P2;SDS_P1;SDS_P2;PMS_P1;PMS_P2;Temp;Humidity;BMP_temperature;BMP_pressure;BME280_temperature;BME280_humidity;BME280_pressure;Samples;Min_cycle;Max_cycle;Signal;HPM_P1;HPM_P2
2021/11/04 00:02:04;;;;;;;1.63;1.20;;;4.40;99.90;;;;;;5119529;28;20478;-77
2021/11/04 00:04:30;;;;;;;1.30;1.20;;;4.30;99.90;;;;;;5118010;28;20274;-77
2021/11/04 00:06:55;;;;;;;1.00;1.00;;;4.30;99.90;;;;;;5119383;28;20183;-78
2021/11/04 00:09:21;;;;;;;2.77;1.60;;;4.40;99.90;;;;;;5118126;28;20190;-77
2021/11/04 00:11:47;;;;;;;1.80;1.10;;;4.30;99.90;;;;;;5118672;28;20230;-77
2021/11/04 00:14:13;;;;;;;1.23;0.90;;;4.30;99.90;;;;;;5118758;28;20179;-77
2021/11/04 00:16:38;;;;;;;1.63;1.10;;;4.30;99.90;;;;;;5118890;28;20171;-77
2021/11/04 00:19:04;;;;;;;1.30;1.20;;;4.30;99.90;;;;;;5117703;28;20232;-77
2021/11/04 00:21:30;;;;;;;1.30;1.20;;;4.30;99.90;;;;;;5117549;28;20202;-77
2021/11/04 00:23:55;;;;;;;1.30;1.20;;;4.30;99.90;;;;;;5118509;28;20172;-77
2021/11/04 00:26:21;;;;;;;1.33;1.23;;;4.30;99.90;;;;;;5118670;28;20176;-78
2021/11/04 00:28:47;;;;;;;1.20;1.10;;;4.30;99.90;;;;;;5118242;28;20179;-77
2021/11/04 00:31:13;;;;;;;1.40;1.20;;;4.30;99.90;;;;;;5116885;28;20206;-77
2021/11/04 00:33:40;;;;;;;2.27;1.07;;;4.30;99.90;;;;;;5116503;28;20457;-78
2021/11/04 00:36:06;;;;;;;1.10;1.00;;;4.30;99.90;;;;;;5118318;28;20486;-77
2021/11/04 00:38:32;;;;;;;1.10;1.00;;;4.30;99.90;;;;;;5116777;28;20417;-77
2021/11/04 00:40:57;;;;;;;1.23;1.10;;;4.30;99.90;;;;;;5116714;28;20175;-77
2021/11/04 00:43:28;;;;;;;1.27;1.17;;;4.30;99.90;;;;;;5117714;28;20195;-77
2021/11/04 00:45:54;;;;;;;1.43;1.27;;;4.30;99.90;;;;;;5116911;28;20636;-78
2021/11/04 00:48:20;;;;;;;1.10;1.00;;;4.30;99.90;;;;;;5116692;28;20417;-77
2021/11/04 00:50:45;;;;;;;1.00;0.90;;;4.20;99.90;;;;;;5115989;28;20196;-77
2021/11/04 00:53:11;;;;;;;1.40;1.30;;;4.30;99.90;;;;;;5117342;28;20201;-77
2021/11/04 00:55:37;;;;;;;1.10;0.90;;;4.30;99.90;;;;;;5117158;28;20236;-77
2021/11/04 00:58:03;;;;;;;0.90;0.90;;;4.30;99.90;;;;;;5117433;28;20210;-77
2021/11/04 01:00:29;;;;;;;1.23;1.13;;;4.30;99.90;;;;;;5117285;28;20585;-77
2021/11/04 01:02:55;;;;;;;1.53;1.00;;;4.30;99.90;;;;;;5116045;28;20465;-77
2021/11/04 01:05:21;;;;;;;1.20;1.10;;;4.30;99.90;;;;;;5115795;28;20185;-77
2021/11/04 01:07:46;;;;;;;1.33;1.20;;;4.30;99.90;;;;;;5116827;28;20183;-77
2021/11/04 01:10:12;;;;;;;1.40;1.00;;;4.30;99.90;;;;;;5115529;28;20183;-77
2021/11/04 01:12:38;;;;;;;1.60;1.00;;;4.40;99.90;;;;;;5115489;28;20600;-77
2021/11/04 01:15:04;;;;;;;0.83;0.83;;;4.20;99.90;;;;;;5116433;28;20228;-77
2021/11/04 01:17:31;;;;;;;1.00;1.00;;;4.30;99.90;;;;;;5115363;28;20179;-77
2021/11/04 01:19:57;;;;;;;0.90;0.90;;;4.40;99.90;;;;;;5117116;28;20408;-77
2021/11/04 01:22:23;;;;;;;0.90;0.90;;;4.40;99.90;;;;;;5117468;28;20425;-77
2021/11/04 01:24:48;;;;;;;0.90;0.90;;;4.40;99.90;;;;;;5116135;28;20197;-77
2021/11/04 01:27:14;;;;;;;1.10;0.90;;;4.40;99.90;;;;;;5116538;28;20183;-77
2021/11/04 01:29:40;;;;;;;0.90;0.90;;;4.40;99.90;;;;;;5115078;28;20183;-77
2021/11/04 01:32:06;;;;;;;1.13;0.90;;;4.40;99.90;;;;;;5116247;28;20198;-77
2021/11/04 01:34:31;;;;;;;0.70;0.70;;;4.40;99.90;;;;;;5115925;28;20724;-77
2021/11/04 01:36:57;;;;;;;0.90;0.90;;;4.40;99.90;;;;;;5116519;28;20494;-79
2021/11/04 01:39:23;;;;;;;1.23;1.13;;;4.40;99.90;;;;;;5116017;28;20179;-77
2021/11/04 01:41:49;;;;;;;0.93;0.80;;;4.30;99.90;;;;;;5116057;28;20225;-77
2021/11/04 08:23:23;;;;;;;1.40;1.27;;;3.50;99.90;;;;;;5111526;27;20574;-77
2021/11/04 08:25:48;;;;;;;1.50;1.40;;;3.60;99.90;;;;;;5111277;28;20401;-77
2021/11/04 08:28:14;;;;;;;1.57;1.47;;;3.90;99.90;;;;;;5110280;28;20397;-77
2021/11/04 08:30:39;;;;;;;1.93;1.43;;;4.00;99.90;;;;;;5110084;28;20262;-77
2021/11/04 08:33:05;;;;;;;1.40;1.30;;;3.80;99.90;;;;;;5112201;28;20202;-77
2021/11/04 08:35:31;;;;;;;1.60;1.20;;;3.70;99.90;;;;;;5111588;28;20212;-77
2021/11/04 08:37:57;;;;;;;1.50;1.40;;;3.60;99.90;;;;;;5111723;28;20537;-77
2021/11/04 08:40:23;;;;;;;1.73;1.63;;;3.50;99.90;;;;;;5110604;28;20416;-77
2021/11/04 08:42:50;;;;;;;3.23;1.90;;;3.60;99.90;;;;;;5111307;28;20207;-77
2021/11/04 08:45:16;;;;;;;2.03;1.93;;;3.60;99.90;;;;;;5110292;28;20305;-77
2021/11/04 08:47:42;;;;;;;2.77;2.00;;;3.60;99.90;;;;;;5111206;28;20450;-77
2021/11/04 08:50:11;;;;;;;3.43;2.47;;;3.50;99.90;;;;;;5113002;28;20171;-77
2021/11/04 08:52:38;;;;;;;1.57;1.40;;;3.50;99.90;;;;;;5110962;28;20218;-78
2021/11/04 08:55:06;;;;;;;1.90;1.80;;;3.60;99.90;;;;;;5110111;28;20487;-78
2021/11/04 08:57:32;;;;;;;5.00;3.43;;;3.60;99.90;;;;;;5111930;28;20756;-77
2021/11/04 08:59:58;;;;;;;2.40;2.20;;;3.70;99.90;;;;;;5111495;28;20416;-77
2021/11/04 09:02:25;;;;;;;1.73;1.63;;;3.70;99.90;;;;;;5109998;28;20835;-77
2021/11/04 09:04:51;;;;;;;1.90;1.80;;;3.80;99.90;;;;;;5109976;28;20627;-77
2021/11/04 09:07:21;;;;;;;2.03;1.80;;;3.80;99.90;;;;;;5111411;28;20500;-77
2021/11/04 09:09:50;;;;;;;2.20;2.00;;;3.80;99.90;;;;;;5112047;28;20148;-77
2021/11/04 09:12:16;;;;;;;1.67;1.57;;;3.90;99.90;;;;;;5109619;28;21020;-77
2021/11/04 09:14:42;;;;;;;4.67;2.63;;;3.90;99.90;;;;;;5110039;28;20810;-77
2021/11/04 09:17:09;;;;;;;2.57;2.17;;;3.90;99.90;;;;;;5112571;28;20417;-77
2021/11/04 09:19:35;;;;;;;2.20;1.97;;;3.90;99.90;;;;;;5110549;28;20201;-77
2021/11/04 09:22:01;;;;;;;1.57;1.47;;;3.90;99.90;;;;;;5111471;28;20555;-77
2021/11/04 09:24:27;;;;;;;2.23;2.03;;;3.70;99.90;;;;;;5111240;28;20444;-77
2021/11/04 09:26:55;;;;;;;2.20;2.00;;;3.60;99.90;;;;;;5109787;28;20191;-77
2021/11/04 09:29:21;;;;;;;1.80;1.70;;;3.70;99.90;;;;;;5111283;28;20961;-77
2021/11/04 09:31:46;;;;;;;2.13;1.93;;;3.70;99.90;;;;;;5111127;28;20413;-77
2021/11/04 09:34:12;;;;;;;3.10;2.67;;;3.70;99.90;;;;;;5100088;28;20553;-78
2021/11/04 09:36:38;;;;;;;8.37;4.97;;;3.80;99.90;;;;;;5097559;28;20177;-78
2021/11/04 09:39:04;;;;;;;2.47;2.20;;;3.80;99.90;;;;;;5095868;28;20650;-77
2021/11/04 09:41:31;;;;;;;1.90;1.80;;;3.70;99.90;;;;;;5095660;28;20219;-77
2021/11/04 09:43:57;;;;;;;2.43;2.23;;;3.70;99.90;;;;;;5095993;28;20634;-77
2021/11/04 09:46:24;;;;;;;2.57;2.37;;;3.60;99.90;;;;;;5097241;28;20770;-77
2021/11/04 09:48:51;;;;;;;2.37;2.17;;;3.60;99.90;;;;;;5097400;28;20563;-77
2021/11/04 09:51:18;;;;;;;2.03;1.93;;;3.60;99.90;;;;;;5095644;28;20414;-77
2021/11/04 09:53:44;;;;;;;2.40;2.20;;;3.60;99.90;;;;;;5096738;28;20430;-77
2021/11/04 09:56:09;;;;;;;2.70;2.50;;;3.70;99.90;;;;;;5096865;28;20402;-77
2021/11/04 09:58:35;;;;;;;4.03;2.50;;;3.90;99.90;;;;;;5098054;28;20175;-77
2021/11/04 10:01:25;;;;;;;2.70;2.50;;;3.80;99.90;;;;;;5096708;28;20221;-77
2021/11/04 10:03:53;;;;;;;3.00;2.70;;;3.80;99.90;;;;;;5095982;28;20192;-79
2021/11/04 10:06:34;;;;;;;4.30;2.30;;;3.90;99.90;;;;;;5094935;28;20413;-77
2021/11/04 10:09:04;;;;;;;2.30;1.80;;;3.90;99.90;;;;;;5096455;28;20426;-77
2021/11/04 10:11:35;;;;;;;2.07;1.97;;;3.90;99.90;;;;;;5096297;28;20416;-77
2021/11/04 10:14:06;;;;;;;1.70;1.60;;;3.90;99.90;;;;;;5095546;28;20414;-77
2021/11/04 10:16:34;;;;;;;2.33;2.13;;;4.00;99.90;;;;;;5095565;28;20403;-77
2021/11/04 10:19:05;;;;;;;2.10;2.00;;;4.10;99.90;;;;;;5096689;28;20489;-77
2021/11/04 10:21:32;;;;;;;2.50;2.10;;;4.10;99.90;;;;;;5095241;28;20549;-77
2021/11/04 10:23:58;;;;;;;2.07;1.80;;;4.20;99.90;;;;;;5096451;28;20408;-78
2021/11/04 10:26:30;;;;;;;2.57;2.37;;;4.30;99.90;;;;;;5096987;28;20403;-77
2021/11/04 10:29:05;;;;;;;1.93;1.80;;;4.50;99.90;;;;;;5096261;28;20456;-77
2021/11/04 10:31:38;;;;;;;3.40;3.10;;;4.60;99.90;;;;;;5096288;28;20765;-79
2021/11/04 10:34:12;;;;;;;2.10;1.90;;;4.60;99.90;;;;;;5095618;28;20452;-77
2021/11/04 10:36:38;;;;;;;2.27;2.07;;;4.70;99.90;;;;;;5096623;28;20395;-77
2021/11/04 10:39:04;;;;;;;2.70;2.50;;;4.60;99.90;;;;;;5094954;28;20421;-77
2021/11/04 10:41:35;;;;;;;2.40;2.20;;;4.70;99.90;;;;;;5096714;28;20618;-77
2021/11/04 10:44:21;;;;;;;2.80;2.60;;;4.70;99.90;;;;;;5095046;28;20161;-77
2021/11/04 10:46:49;;;;;;;2.73;2.50;;;4.70;99.90;;;;;;5096163;28;20176;-77
2021/11/04 10:49:16;;;;;;;3.37;3.07;;;4.70;99.90;;;;;;5096381;28;21068;-78
2021/11/04 10:51:42;;;;;;;2.93;2.73;;;4.80;99.90;;;;;;5098615;28;20440;-78
2021/11/04 10:54:13;;;;;;;2.27;2.10;;;4.80;99.90;;;;;;5097912;28;20403;-78
2021/11/04 10:56:49;;;;;;;2.70;2.50;;;4.70;99.90;;;;;;5096316;28;20486;-78
2021/11/04 10:59:17;;;;;;;2.20;2.10;;;4.70;99.90;;;;;;5095861;28;20168;-78
2021/11/04 11:01:54;;;;;;;3.60;3.30;;;4.70;99.90;;;;;;5095431;28;20549;-77
2021/11/04 11:04:24;;;;;;;10.07;8.03;;;4.70;99.90;;;;;;5094061;28;20413;-77
2021/11/04 11:06:57;;;;;;;3.47;2.93;;;4.70;99.90;;;;;;5095481;28;20188;-77
2021/11/04 11:09:26;;;;;;;3.73;3.30;;;4.60;99.90;;;;;;5095581;28;20148;-77
2021/11/04 11:11:56;;;;;;;2.30;2.10;;;4.60;99.90;;;;;;5094993;28;20582;-77
2021/11/04 11:14:23;;;;;;;2.50;2.30;;;4.60;99.90;;;;;;5095125;28;20202;-78
2021/11/04 11:16:54;;;;;;;2.57;2.37;;;4.60;99.90;;;;;;5096311;28;20892;-78
2021/11/04 11:19:21;;;;;;;2.70;2.50;;;4.70;99.90;;;;;;5097994;28;20903;-77
2021/11/04 11:21:51;;;;;;;3.10;2.80;;;4.80;99.90;;;;;;5097399;28;20512;-78
2021/11/04 11:24:20;;;;;;;2.73;2.53;;;4.80;99.90;;;;;;5097578;28;20410;-78
2021/11/04 11:26:46;;;;;;;3.73;3.00;;;4.90;99.90;;;;;;5097290;28;20414;-78
2021/11/04 11:29:13;;;;;;;3.17;2.87;;;4.90;99.90;;;;;;5098575;28;20483;-77
2021/11/04 11:31:50;;;;;;;3.17;2.87;;;4.90;99.90;;;;;;5101709;28;20436;-77
2021/11/04 11:34:16;;;;;;;2.87;2.60;;;4.90;99.90;;;;;;5101210;28;20413;-77
2021/11/04 11:37:14;;;;;;;4.93;4.43;;;4.90;99.90;;;;;;5097497;28;20402;-78
2021/11/04 11:39:41;;;;;;;2.60;2.40;;;;;;;;;;5094911;28;20176;-78
2021/11/04 11:42:10;;;;;;;2.83;2.63;;;4.80;99.90;;;;;;5095689;28;20468;-77
2021/11/04 11:44:37;;;;;;;2.60;2.40;;;4.80;99.90;;;;;;5094312;28;20195;-78
2021/11/04 11:47:05;;;;;;;3.33;3.03;;;4.60;99.90;;;;;;5094548;28;20414;-77
2021/11/04 11:49:32;;;;;;;3.50;3.00;;;4.50;99.90;;;;;;5095375;28;20803;-77
2021/11/04 11:51:58;;;;;;;2.83;2.63;;;4.40;99.90;;;;;;5095559;28;20465;-77
2021/11/04 11:54:59;;;;;;;3.33;2.27;;;4.40;99.90;;;;;;5095581;28;20417;-78
2021/11/04 11:57:26;;;;;;;3.20;2.90;;;4.50;99.90;;;;;;5053185;28;20195;-78
2021/11/04 11:59:54;;;;;;;4.67;3.00;;;4.90;99.90;;;;;;5096198;28;20398;-78
2021/11/04 12:02:55;;;;;;;2.57;2.37;;;5.40;99.90;;;;;;5095165;28;20453;-78
2021/11/04 12:05:34;;;;;;;3.20;2.80;;;5.30;99.90;;;;;;5093287;28;20625;-78
2021/11/04 12:08:08;;;;;;;7.17;2.27;;;5.90;99.90;;;;;;5093408;28;20815;-78
2021/11/04 12:10:40;;;;;;;3.23;2.30;;;6.20;99.90;;;;;;5094835;28;20394;-78
2021/11/04 12:13:06;;;;;;;2.40;2.20;;;6.20;99.90;;;;;;5095181;28;20422;-78
2021/11/04 12:16:10;;;;;;;2.03;1.83;;;6.00;99.90;;;;;;5094481;28;20177;-78
2021/11/04 12:18:36;;;;;;;2.47;2.27;;;6.00;99.90;;;;;;5095432;28;20160;-78
2021/11/04 12:21:04;;;;;;;4.40;2.00;;;6.00;99.90;;;;;;5093732;28;20621;-78
2021/11/04 12:23:35;;;;;;;2.37;2.17;;;6.10;99.90;;;;;;5095315;28;20193;-78
2021/11/04 12:26:02;;;;;;;2.67;2.47;;;5.90;99.90;;;;;;5098349;28;20207;-78
2021/11/04 12:28:44;;;;;;;3.30;2.30;;;5.60;99.90;;;;;;5108222;28;20183;-78
2021/11/04 12:31:26;;;;;;;2.50;2.30;;;5.40;99.90;;;;;;5096429;28;20211;-78
2021/11/04 12:33:53;;;;;;;2.33;2.13;;;5.30;99.90;;;;;;5095781;28;20273;-78
2021/11/04 12:36:40;;;;;;;2.63;2.43;;;5.20;99.90;;;;;;5094927;28;20177;-78
2021/11/04 12:39:30;;;;;;;2.40;2.20;;;5.10;99.90;;;;;;5094150;28;20152;-78
2021/11/04 12:42:00;;;;;;;2.60;2.40;;;5.00;99.90;;;;;;5094426;28;20196;-77
2021/11/04 12:44:28;;;;;;;3.07;2.77;;;5.00;99.90;;;;;;5094638;28;20180;-78
2021/11/04 12:46:54;;;;;;;3.43;3.13;;;4.90;99.90;;;;;;5094074;28;20168;-77
2021/11/04 12:49:31;;;;;;;3.63;2.60;;;4.90;99.90;;;;;;5093801;28;20567;-77
2021/11/04 12:52:02;;;;;;;2.83;2.30;;;4.80;99.90;;;;;;5092294;28;20200;-80
2021/11/04 12:54:36;;;;;;;3.20;2.80;;;4.90;99.90;;;;;;5093649;28;20177;-78
2021/11/04 12:57:07;;;;;;;2.97;2.43;;;4.80;99.90;;;;;;5093518;28;20169;-78
2021/11/04 12:59:39;;;;;;;2.27;2.07;;;4.80;99.90;;;;;;5094389;28;20182;-78
2021/11/04 13:02:09;;;;;;;4.47;3.00;;;4.70;99.90;;;;;;5093856;28;20782;-77
2021/11/04 13:04:41;;;;;;;3.27;2.97;;;4.80;99.90;;;;;;5093740;28;20170;-77
2021/11/04 13:07:08;;;;;;;2.13;1.93;;;4.90;99.90;;;;;;5093790;28;20177;-77
2021/11/04 13:09:51;;;;;;;3.20;2.60;;;4.80;99.90;;;;;;5096561;28;20648;-77
2021/11/04 13:12:47;;;;;;;2.40;2.20;;;4.80;99.90;;;;;;5097603;28;20195;-78
2021/11/04 13:15:21;;;;;;;2.70;2.37;;;4.80;99.90;;;;;;5080018;28;20198;-76
2021/11/04 13:18:01;;;;;;;4.07;3.10;;;4.80;99.90;;;;;;5098916;28;20174;-77
2021/11/04 13:20:40;;;;;;;4.23;3.10;;;4.60;99.90;;;;;;5095778;28;20172;-77
2021/11/04 13:23:18;;;;;;;2.83;2.50;;;4.70;99.90;;;;;;5096740;28;21063;-77
2021/11/04 13:25:56;;;;;;;4.57;3.63;;;4.70;99.90;;;;;;5096464;28;20164;-77
2021/11/04 13:28:26;;;;;;;2.90;2.60;;;4.70;99.90;;;;;;5098956;28;20153;-77
2021/11/04 13:31:10;;;;;;;3.30;2.80;;;4.70;99.90;;;;;;5098851;28;20161;-78
2021/11/04 13:33:44;;;;;;;4.03;3.23;;;4.80;99.90;;;;;;5096891;28;20216;-77
2021/11/04 13:36:17;;;;;;;3.67;3.23;;;4.80;99.90;;;;;;5095133;28;20262;-77
2021/11/04 13:38:58;;;;;;;2.20;2.00;;;4.90;99.90;;;;;;5096763;28;20176;-78
2021/11/04 13:41:33;;;;;;;2.03;1.80;;;4.90;99.90;;;;;;5095810;28;20642;-78
2021/11/04 13:44:00;;;;;;;2.80;2.60;;;4.80;99.90;;;;;;5095565;28;20165;-77
2021/11/04 13:46:28;;;;;;;3.20;2.90;;;4.90;99.90;;;;;;5096970;28;20221;-77
2021/11/04 13:48:55;;;;;;;2.30;2.13;;;4.80;99.90;;;;;;5095427;28;20223;-78
2021/11/04 13:51:39;;;;;;;5.40;4.27;;;5.00;99.90;;;;;;5095397;28;20183;-78
2021/11/04 13:54:11;;;;;;;3.17;2.87;;;4.90;99.90;;;;;;5094928;28;20173;-77
2021/11/04 13:56:37;;;;;;;2.87;2.47;;;5.00;99.90;;;;;;5096387;28;20234;-77
2021/11/04 13:59:03;;;;;;;3.43;3.07;;;5.00;99.90;;;;;;5096417;28;20179;-77
2021/11/04 14:01:29;;;;;;;3.73;3.10;;;5.00;99.90;;;;;;5095072;28;20281;-77
2021/11/04 14:04:12;;;;;;;3.27;2.97;;;4.90;99.90;;;;;;5096264;28;20242;-78
2021/11/04 14:06:46;;;;;;;2.70;2.50;;;4.90;99.90;;;;;;5095202;28;20166;-77
2021/11/04 14:09:32;;;;;;;3.97;3.60;;;4.90;99.90;;;;;;5094906;28;20173;-77
2021/11/04 14:12:11;;;;;;;9.40;5.40;;;4.80;99.90;;;;;;5096375;28;20292;-77
2021/11/04 14:14:41;;;;;;;3.67;3.33;;;4.90;99.90;;;;;;5094851;28;20683;-77
2021/11/04 14:17:06;;;;;;;2.90;2.70;;;4.90;99.90;;;;;;5109699;28;20177;-77
2021/11/04 14:19:32;;;;;;;3.27;2.97;;;4.80;99.90;;;;;;5115760;28;20673;-78
2021/11/04 14:21:58;;;;;;;2.83;2.53;;;4.70;99.90;;;;;;5115508;28;20211;-78
2021/11/04 14:24:23;;;;;;;3.30;3.00;;;4.60;99.90;;;;;;5115594;28;20172;-78
2021/11/04 14:26:49;;;;;;;3.47;2.97;;;4.60;99.90;;;;;;5115882;28;20198;-77
2021/11/04 14:29:15;;;;;;;4.53;3.33;;;4.60;99.90;;;;;;5116181;28;20171;-77
2021/11/04 14:31:41;;;;;;;3.87;3.53;;;4.80;99.90;;;;;;5114618;28;20180;-78
2021/11/04 14:34:07;;;;;;;4.53;3.87;;;4.80;99.90;;;;;;5114504;28;20212;-77
2021/11/04 14:36:34;;;;;;;5.33;3.83;;;4.80;99.90;;;;;;5114326;28;20184;-78
2021/11/04 14:39:00;;;;;;;3.67;3.30;;;4.80;99.90;;;;;;5114898;28;20252;-78
2021/11/04 14:41:26;;;;;;;4.20;3.70;;;4.70;99.90;;;;;;5115642;28;20214;-78
2021/11/04 14:43:52;;;;;;;4.00;3.70;;;4.80;99.90;;;;;;5115743;28;20521;-77
2021/11/04 14:46:17;;;;;;;4.17;3.73;;;4.70;99.90;;;;;;5117240;28;20172;-81
2021/11/04 14:48:43;;;;;;;4.00;3.60;;;4.60;99.90;;;;;;5116205;28;20638;-77
2021/11/04 14:51:09;;;;;;;5.10;4.13;;;4.60;99.90;;;;;;5115700;28;20205;-78
2021/11/04 14:53:37;;;;;;;3.70;3.27;;;4.60;99.90;;;;;;5115410;28;20192;-78
2021/11/04 14:56:04;;;;;;;4.60;3.77;;;4.50;99.90;;;;;;5114290;28;20669;-77
2021/11/04 14:58:30;;;;;;;4.13;3.57;;;4.50;99.90;;;;;;5114371;28;20165;-77
2021/11/04 15:00:57;;;;;;;5.50;4.70;;;4.50;99.90;;;;;;5115459;28;20192;-78
2021/11/04 15:03:23;;;;;;;5.00;4.47;;;4.50;99.90;;;;;;5115482;28;20200;-78
2021/11/04 15:05:48;;;;;;;5.83;4.60;;;4.40;99.90;;;;;;5115054;28;20176;-78
2021/11/04 15:08:15;;;;;;;5.70;4.53;;;4.40;99.90;;;;;;5115691;28;20171;-78
2021/11/04 15:10:42;;;;;;;4.90;4.40;;;4.30;99.90;;;;;;5115179;28;20179;-77
2021/11/04 15:13:09;;;;;;;4.67;4.27;;;4.30;99.90;;;;;;5116183;28;20779;-77
2021/11/04 15:15:34;;;;;;;4.73;4.33;;;4.40;99.90;;;;;;5117641;28;20483;-77
2021/11/04 15:18:00;;;;;;;4.90;4.40;;;4.40;99.90;;;;;;5115635;28;20409;-77
2021/11/04 15:20:26;;;;;;;4.73;4.30;;;4.30;99.90;;;;;;5115084;28;20582;-77
2021/11/04 15:22:53;;;;;;;4.87;4.33;;;4.30;99.90;;;;;;5113427;28;20214;-77
2021/11/04 15:25:19;;;;;;;7.13;5.70;;;4.30;99.90;;;;;;5114705;28;20220;-77
2021/11/04 15:27:44;;;;;;;5.80;5.20;;;4.20;99.90;;;;;;5115323;28;20469;-78
2021/11/04 15:30:11;;;;;;;7.77;5.60;;;4.20;99.90;;;;;;5115624;28;20622;-77
2021/11/04 15:32:37;;;;;;;5.97;4.77;;;4.20;99.90;;;;;;5113014;28;20229;-77
2021/11/04 15:35:03;;;;;;;7.23;5.87;;;4.00;99.90;;;;;;5114690;28;20439;-77
2021/11/04 15:37:29;;;;;;;8.37;6.47;;;4.10;99.90;;;;;;5114628;28;20749;-77
2021/11/04 15:39:54;;;;;;;8.40;6.23;;;4.10;99.90;;;;;;5113319;28;20504;-78
2021/11/04 15:42:21;;;;;;;5.77;5.17;;;4.00;99.90;;;;;;5113245;28;20569;-77
2021/11/04 15:44:47;;;;;;;7.60;5.00;;;3.90;99.90;;;;;;5114445;28;20170;-78
2021/11/04 15:47:13;;;;;;;6.30;5.03;;;3.90;99.90;;;;;;5113286;28;20409;-77
2021/11/04 15:49:39;;;;;;;5.13;4.63;;;3.90;99.90;;;;;;5114756;28;20397;-77
2021/11/04 15:52:06;;;;;;;6.13;5.00;;;3.80;99.90;;;;;;5113108;28;20199;-77
2021/11/04 15:54:31;;;;;;;5.07;4.33;;;3.80;99.90;;;;;;5112951;28;20420;-77
2021/11/04 15:56:57;;;;;;;4.63;4.07;;;3.70;99.90;;;;;;5114256;28;20409;-77
2021/11/04 15:59:23;;;;;;;4.10;3.70;;;3.80;99.90;;;;;;5114634;28;20190;-77
2021/11/04 16:01:49;;;;;;;4.80;4.30;;;3.70;99.90;;;;;;5114302;28;20221;-77
2021/11/04 16:04:14;;;;;;;5.67;5.07;;;3.70;99.90;;;;;;5114146;28;20160;-78
2021/11/04 16:06:43;;;;;;;10.63;5.87;;;3.70;99.90;;;;;;5114462;28;20635;-78
2021/11/04 16:09:14;;;;;;;5.30;4.80;;;3.60;99.90;;;;;;5114399;28;20163;-78
2021/11/04 16:11:41;;;;;;;5.00;4.40;;;3.50;99.90;;;;;;5114489;28;20481;-78
2021/11/04 16:14:08;;;;;;;5.10;4.60;;;3.50;99.90;;;;;;5113040;28;20417;-78
2021/11/04 16:16:34;;;;;;;5.17;4.67;;;3.50;99.90;;;;;;5114318;28;20409;-77
2021/11/04 16:19:00;;;;;;;5.53;4.87;;;3.50;99.90;;;;;;5113061;28;20440;-78
2021/11/04 16:21:32;;;;;;;6.53;5.40;;;3.50;99.90;;;;;;5114313;28;20459;-77
2021/11/04 16:24:01;;;;;;;7.97;6.43;;;3.50;99.90;;;;;;5112621;28;20806;-78
2021/11/04 16:26:27;;;;;;;7.73;6.10;;;3.50;99.90;;;;;;5113915;28;20437;-77
2021/11/04 16:28:53;;;;;;;9.33;6.97;;;3.50;99.90;;;;;;5113984;28;20451;-77
2021/11/04 16:31:19;;;;;;;6.83;6.23;;;3.50;99.90;;;;;;5113907;28;20625;-77
2021/11/04 16:33:48;;;;;;;7.80;6.43;;;3.50;99.90;;;;;;5113862;28;20187;-77
2021/11/04 16:36:14;;;;;;;9.80;6.47;;;3.40;99.90;;;;;;5113731;28;20829;-77
2021/11/04 16:38:40;;;;;;;9.20;7.40;;;3.40;99.90;;;;;;5112640;28;20448;-77
2021/11/04 16:41:06;;;;;;;11.10;8.07;;;3.30;99.90;;;;;;5113809;28;20525;-77
2021/11/04 16:43:32;;;;;;;8.33;7.10;;;3.30;99.90;;;;;;5114938;28;20203;-77
2021/11/04 16:45:58;;;;;;;8.67;6.33;;;3.30;99.90;;;;;;5116587;28;20922;-77
2021/11/04 16:48:23;;;;;;;8.07;5.90;;;3.30;99.90;;;;;;5117928;28;20599;-77
2021/11/04 16:50:49;;;;;;;8.57;5.53;;;3.30;99.90;;;;;;5117940;28;20171;-77
2021/11/04 16:53:15;;;;;;;10.20;7.57;;;3.30;99.90;;;;;;5116503;28;20691;-77
2021/11/04 16:55:42;;;;;;;8.83;6.83;;;3.40;99.90;;;;;;5117748;28;20167;-77
2021/11/04 16:58:09;;;;;;;6.20;5.30;;;3.30;99.90;;;;;;5117721;28;20880;-77
2021/11/04 17:00:34;;;;;;;30.77;18.07;;;3.20;99.90;;;;;;5116509;28;20489;-77
2021/11/04 17:03:00;;;;;;;9.70;6.97;;;3.20;99.90;;;;;;5117906;28;20544;-78
2021/11/04 17:05:27;;;;;;;11.07;6.67;;;3.20;99.90;;;;;;5120900;27;20167;-81
2021/11/04 17:07:53;;;;;;;5.90;4.73;;;3.20;99.90;;;;;;5118450;28;20433;-80
2021/11/04 17:10:19;;;;;;;5.87;5.27;;;3.30;99.90;;;;;;5119253;28;20409;-80
2021/11/04 17:12:47;;;;;;;5.43;4.50;;;;;;;;;;5118029;28;20191;-77
2021/11/04 17:15:13;;;;;;;6.60;5.90;;;3.40;99.90;;;;;;5117574;28;20437;-79
2021/11/04 17:17:40;;;;;;;5.33;4.83;;;3.40;99.90;;;;;;5119572;28;20401;-77
2021/11/04 17:20:07;;;;;;;7.23;4.63;;;3.40;99.90;;;;;;5117236;28;20906;-77
2021/11/04 17:22:38;;;;;;;5.37;4.83;;;3.40;99.90;;;;;;5116825;28;20518;-77
2021/11/04 17:25:06;;;;;;;5.77;4.40;;;3.30;99.90;;;;;;5115754;28;20393;-77
2021/11/04 17:27:33;;;;;;;4.63;4.20;;;3.40;99.90;;;;;;5117086;28;20405;-77
2021/11/04 17:30:01;;;;;;;6.03;5.07;;;3.40;99.90;;;;;;5115776;28;20550;-77
2021/11/04 17:32:26;;;;;;;10.67;6.83;;;3.40;99.90;;;;;;5115525;28;20564;-77
2021/11/04 17:34:52;;;;;;;7.30;5.27;;;3.40;99.90;;;;;;5117123;28;20405;-79
2021/11/04 17:37:18;;;;;;;5.70;5.20;;;3.50;99.90;;;;;;5117057;28;20622;-78
2021/11/04 17:39:44;;;;;;;5.07;4.30;;;;;;;;;;5096422;28;20172;-77
2021/11/04 17:42:10;;;;;;;4.73;4.27;;;3.50;99.90;;;;;;5096491;28;20618;-78
2021/11/04 17:44:35;;;;;;;7.43;5.40;;;3.40;99.90;;;;;;5096371;28;20406;-78
2021/11/04 17:47:01;;;;;;;4.23;3.83;;;3.40;99.90;;;;;;5096468;28;20531;-78
2021/11/04 17:49:27;;;;;;;4.30;3.90;;;3.30;99.90;;;;;;5095009;28;20180;-77
2021/11/04 17:51:54;;;;;;;4.37;3.50;;;3.30;99.90;;;;;;5096397;28;20688;-78
2021/11/04 17:54:22;;;;;;;4.20;3.80;;;3.30;99.90;;;;;;5094539;28;20579;-78
